Time,TemperatureF,DewpointF,PressureIn,WindDirection,WindDirectionDegrees,WindSpeedMPH,WindSpeedGustMPH,Humidity,HourlyPrecipIn,Conditions,Clouds,dailyrainin,SoftwareType,DateUTC
2013-02-08 00:02:00,24.8,5.8,30.53,East,91,0.0,0.0,44,0.00,,,0.00,WUHU216DAVISWMX,2013-02-08 05:02:00,
2013-02-08 00:07:00,24.9,4.9,30.53,East,91,0.0,2.0,42,0.00,,,0.00,WUHU216DAVISWMX,2013-02-08 05:07:00,
2013-02-08 00:12:00,24.8,4.2,30.53,East,91,0.0,2.0,41,0.00,,,0.00,WUHU216DAVISWMX,2013-02-08 05:12:00,
2013-02-08 00:17:00,24.7,6.2,30.53,East,91,0.0,0.0,45,0.00,,,0.00,WUHU216DAVISWMX,2013-02-08 05:17:00,
2013-02-08 00:22:00,24.8,5.3,30.53,East,91,0.0,0.0,43,0.00,,,0.00,WUHU216DAVISWMX,2013-02-08 05:22:00,
2013-02-08 00:27:00,24.7,4.7,30.52,East,91,0.0,0.0,42,0.00,,,0.00,WUHU216DAVISWMX,2013-02-08 05:27:00,
2013-02-08 00:32:00,24.6,5.1,30.52,East,91,0.0,0.0,43,0.00,,,0.00,WUHU216DAVISWMX,2013-02-08 05:32:00,
2013-02-08 00:37:00,24.7,5.7,30.52,East,91,0.0,0.0,44,0.00,,,0.00,WUHU216DAVISWMX,2013-02-08 05:37:00,
2013-02-08 00:42:00,24.6,5.6,30.51,East,91,0.0,0.0,44,0.00,,,0.00,WUHU216DAVISWMX,2013-02-08 05:42:00,
2013-02-08 00:47:00,24.6,5.6,30.51,East,91,0.0,0.0,44,0.00,,,0.00,WUHU216DAVISWMX,2013-02-08 05:47:00,
2013-02-08 00:52:00,24.5,6.5,30.51,East,91,0.0,0.0,46,0.00,,,0.00,WUHU216DAVISWMX,2013-02-08 05:52:00,
2013-02-08 00:57:00,24.4,6.0,30.51,East,91,0.0,0.0,45,0.00,,,0.00,WUHU216DAVISWMX,2013-02-08 05:57:00,
2013-02-08 01:02:00,24.2,7.2,30.51,East,91,0.0,0.0,48,0.00,,,0.00,WUHU216DAVISWMX,2013-02-08 06:02:00,
2013-02-08 01:07:00,24.1,6.7,30.51,East,91,0.0,0.0,47,0.00,,,0.00,WUHU216DAVISWMX,2013-02-08 06:07:00,
2013-02-08 01:12:00,23.9,6.5,30.50,East,91,0.0,0.0,47,0.00,,,0.00,WUHU216DAVISWMX,2013-02-08 06:12:00,
2013-02-08 01:17:00,23.7,6.8,30.51,East,91,0.0,0.0,48,0.00,,,0.00,WUHU216DAVISWMX,2013-02-08 06:17:00,
2013-02-08 01:22:00,23.6,6.7,30.51,East,91,0.0,0.0,48,0.00,,,0.00,WUHU216DAVISWMX,2013-02-08 06:22:00,
2013-02-08 01:27:00,23.5,7.1,30.51,East,91,0.0,0.0,49,0.00,,,0.00,WUHU216DAVISWMX,2013-02-08 06:27:00,
2013-02-08 01:32:00,23.6,8.1,30.50,East,91,0.0,0.0,51,0.00,,,0.00,WUHU216DAVISWMX,2013-02-08 06:32:00,
2013-02-08 01:37:00,23.5,8.4,30.50,East,91,0.0,0.0,52,0.00,,,0.00,WUHU216DAVISWMX,2013-02-08 06:37:00,
2013-02-08 01:42:00,23.6,7.6,30.50,East,91,0.0,0.0,50,0.00,,,0.00,WUHU216DAVISWMX,2013-02-08 06:42:00,
2013-02-08 01:47:00,23.6,7.6,30.50,East,91,0.0,0.0,50,0.00,,,0.00,WUHU216DAVISWMX,2013-02-08 06:47:00,
2013-02-08 01:52:00,23.7,8.1,30.50,East,91,0.0,0.0,51,0.00,,,0.00,WUHU216DAVISWMX,2013-02-08 06:52:00,
2013-02-08 01:57:00,23.7,8.1,30.49,East,91,0.0,0.0,51,0.00,,,0.00,WUHU216DAVISWMX,2013-02-08 06:57:00,
2013-02-08 02:02:00,23.8,7.8,30.49,East,91,0.0,0.0,50,0.00,,,0.00,WUHU216DAVISWMX,2013-02-08 07:02:00,
2013-02-08 02:07:00,23.8,8.2,30.49,East,91,0.0,2.0,51,0.00,,,0.00,WUHU216DAVISWMX,2013-02-08 07:07:00,
2013-02-08 02:12:00,23.8,7.3,30.49,East,91,0.0,2.0,49,0.00,,,0.00,WUHU216DAVISWMX,2013-02-08 07:12:00,
2013-02-08 02:17:00,23.7,7.2,30.49,East,91,0.0,1.0,49,0.00,,,0.00,WUHU216DAVISWMX,2013-02-08 07:17:00,
2013-02-08 02:22:00,23.7,6.8,30.48,East,91,0.0,0.0,48,0.00,,,0.00,WUHU216DAVISWMX,2013-02-08 07:22:00,
2013-02-08 02:27:00,23.5,6.1,30.48,East,91,0.0,0.0,47,0.00,,,0.00,WUHU216DAVISWMX,2013-02-08 07:27:00,
2013-02-08 02:32:00,23.5,6.1,30.48,East,91,0.0,0.0,47,0.00,,,0.00,WUHU216DAVISWMX,2013-02-08 07:32:00,
2013-02-08 02:37:00,23.4,5.5,30.47,East,91,0.0,0.0,46,0.00,,,0.00,WUHU216DAVISWMX,2013-02-08 07:37:00,
2013-02-08 02:42:00,23.3,5.4,30.47,East,91,0.0,0.0,46,0.00,,,0.00,WUHU216DAVISWMX,2013-02-08 07:42:00,
2013-02-08 02:47:00,23.2,5.8,30.47,East,91,1.0,2.0,47,0.00,,,0.00,WUHU216DAVISWMX,2013-02-08 07:47:00,
2013-02-08 02:52:00,23.2,5.8,30.46,East,91,1.0,2.0,47,0.00,,,0.00,WUHU216DAVISWMX,2013-02-08 07:52:00,
2013-02-08 02:57:00,23.1,6.2,30.46,East,91,0.0,2.0,48,0.00,,,0.00,WUHU216DAVISWMX,2013-02-08 07:57:00,
2013-02-08 03:02:00,23.1,6.2,30.46,East,91,0.0,2.0,48,0.00,,,0.00,WUHU216DAVISWMX,2013-02-08 08:02:00,
2013-02-08 03:07:00,23.0,6.1,30.46,East,91,0.0,1.0,48,0.00,,,0.00,WUHU216DAVISWMX,2013-02-08 08:07:00,
2013-02-08 03:12:00,23.2,6.3,30.46,East,91,2.0,2.0,48,0.00,,,0.00,WUHU216DAVISWMX,2013-02-08 08:12:00,
2013-02-08 03:17:00,23.0,6.1,30.45,East,91,0.0,2.0,48,0.00,,,0.00,WUHU216DAVISWMX,2013-02-08 08:17:00,
2013-02-08 03:22:00,23.2,7.2,30.45,East,91,0.0,2.0,50,0.00,,,0.00,WUHU216DAVISWMX,2013-02-08 08:22:00,
2013-02-08 03:27:00,23.1,7.1,30.45,East,91,0.0,1.0,50,0.00,,,0.00,WUHU216DAVISWMX,2013-02-08 08:27:00,
2013-02-08 03:32:00,23.2,7.2,30.44,East,90,1.0,2.0,50,0.00,,,0.00,WUHU216DAVISWMX,2013-02-08 08:32:00,
2013-02-08 03:37:00,23.2,7.2,30.44,East,90,1.0,2.0,50,0.00,,,0.00,WUHU216DAVISWMX,2013-02-08 08:37:00,
2013-02-08 03:42:00,23.1,7.6,30.44,East,90,0.0,3.0,51,0.00,,,0.00,WUHU216DAVISWMX,2013-02-08 08:42:00,
2013-02-08 03:47:00,23.2,8.6,30.44,East,90,0.0,3.0,53,0.00,,,0.00,WUHU216DAVISWMX,2013-02-08 08:47:00,
2013-02-08 03:52:00,23.3,8.7,30.44,East,90,0.0,2.0,53,0.00,,,0.00,WUHU216DAVISWMX,2013-02-08 08:52:00,
2013-02-08 03:57:00,23.3,8.2,30.44,East,90,0.0,2.0,52,0.00,,,0.00,WUHU216DAVISWMX,2013-02-08 08:57:00,
2013-02-08 04:02:00,23.2,9.0,30.44,East,90,0.0,2.0,54,0.00,,,0.00,WUHU216DAVISWMX,2013-02-08 09:02:00,
2013-02-08 04:07:00,23.3,9.9,30.44,East,90,0.0,2.0,56,0.00,,,0.00,WUHU216DAVISWMX,2013-02-08 09:07:00,
2013-02-08 04:12:00,23.3,9.5,30.43,East,90,0.0,2.0,55,0.00,,,0.00,WUHU216DAVISWMX,2013-02-08 09:12:00,
2013-02-08 04:17:00,23.5,10.1,30.43,East,90,0.0,3.0,56,0.00,,,0.00,WUHU216DAVISWMX,2013-02-08 09:17:00,
2013-02-08 04:22:00,23.5,10.1,30.43,East,90,0.0,3.0,56,0.00,,,0.00,WUHU216DAVISWMX,2013-02-08 09:22:00,
2013-02-08 04:27:00,23.5,10.5,30.43,East,90,0.0,1.0,57,0.00,,,0.00,WUHU216DAVISWMX,2013-02-08 09:27:00,
2013-02-08 04:32:00,23.5,10.9,30.43,East,90,0.0,2.0,58,0.00,,,0.00,WUHU216DAVISWMX,2013-02-08 09:32:00,
2013-02-08 04:37:00,23.5,11.7,30.44,East,90,0.0,2.0,60,0.00,,,0.00,WUHU216DAVISWMX,2013-02-08 09:37:00,
2013-02-08 04:42:00,23.6,11.8,30.43,East,89,0.0,3.0,60,0.00,,,0.00,WUHU216DAVISWMX,2013-02-08 09:42:00,
2013-02-08 04:47:00,23.8,12.3,30.43,East,89,1.0,3.0,61,0.00,,,0.00,WUHU216DAVISWMX,2013-02-08 09:47:00,
2013-02-08 04:52:00,23.7,12.6,30.43,ESE,115,1.0,3.0,62,0.00,,,0.00,WUHU216DAVISWMX,2013-02-08 09:52:00,
2013-02-08 04:57:00,23.7,12.6,30.43,ESE,114,1.0,3.0,62,0.00,,,0.00,WUHU216DAVISWMX,2013-02-08 09:57:00,
2013-02-08 05:02:00,23.6,12.9,30.43,ESE,115,1.0,2.0,63,0.00,,,0.00,WUHU216DAVISWMX,2013-02-08 10:02:00,
2013-02-08 05:07:00,23.7,13.0,30.43,East,79,0.0,3.0,63,0.00,,,0.00,WUHU216DAVISWMX,2013-02-08 10:07:00,
2013-02-08 05:12:00,23.7,13.4,30.43,East,79,1.0,3.0,64,0.00,,,0.00,WUHU216DAVISWMX,2013-02-08 10:12:00,
2013-02-08 05:17:00,23.7,13.4,30.43,East,96,2.0,3.0,64,0.00,,,0.00,WUHU216DAVISWMX,2013-02-08 10:17:00,
2013-02-08 05:22:00,23.6,13.3,30.43,East,96,1.0,3.0,64,0.00,,,0.00,WUHU216DAVISWMX,2013-02-08 10:22:00,
2013-02-08 05:27:00,23.6,13.6,30.42,East,96,0.0,2.0,65,0.00,,,0.00,WUHU216DAVISWMX,2013-02-08 10:27:00,
2013-02-08 05:32:00,23.5,13.5,30.42,East,96,0.0,2.0,65,0.00,,,0.00,WUHU216DAVISWMX,2013-02-08 10:32:00,
2013-02-08 05:37:00,23.4,13.8,30.42,East,96,1.0,2.0,66,0.00,,,0.00,WUHU216DAVISWMX,2013-02-08 10:37:00,
2013-02-08 05:43:00,23.5,14.2,30.42,East,95,1.0,2.0,67,0.00,,,0.00,WUHU216DAVISWMX,2013-02-08 10:43:00,
2013-02-08 05:48:00,23.3,14.4,30.42,East,94,1.0,2.0,68,0.00,,,0.00,WUHU216DAVISWMX,2013-02-08 10:48:00,
2013-02-08 05:53:00,23.3,14.4,30.42,East,97,1.0,4.0,68,0.00,,,0.00,WUHU216DAVISWMX,2013-02-08 10:53:00,
2013-02-08 05:58:00,23.3,15.0,30.42,NE,46,1.0,4.0,70,0.00,,,0.00,WUHU216DAVISWMX,2013-02-08 10:58:00,
2013-02-08 06:03:00,23.3,15.3,30.42,NE,46,1.0,3.0,71,0.00,,,0.00,WUHU216DAVISWMX,2013-02-08 11:03:00,
2013-02-08 06:08:00,23.3,15.7,30.42,NE,50,1.0,2.0,72,0.00,,,0.00,WUHU216DAVISWMX,2013-02-08 11:08:00,
2013-02-08 06:13:00,23.2,15.9,30.42,NE,42,0.0,2.0,73,0.00,,,0.00,WUHU216DAVISWMX,2013-02-08 11:13:00,
2013-02-08 06:18:00,22.9,16.2,30.42,NE,36,0.0,3.0,75,0.00,,,0.00,WUHU216DAVISWMX,2013-02-08 11:18:00,
2013-02-08 06:23:00,22.9,16.5,30.42,NE,36,1.0,3.0,76,0.00,,,0.00,WUHU216DAVISWMX,2013-02-08 11:23:00,
2013-02-08 06:28:00,22.7,16.6,30.42,ENE,77,2.0,4.0,77,0.00,,,0.00,WUHU216DAVISWMX,2013-02-08 11:28:00,
2013-02-08 06:33:00,22.7,16.9,30.42,NNE,22,1.0,4.0,78,0.00,,,0.00,WUHU216DAVISWMX,2013-02-08 11:33:00,
2013-02-08 06:38:00,22.6,16.8,30.41,NNE,22,1.0,3.0,78,0.00,,,0.00,WUHU216DAVISWMX,2013-02-08 11:38:00,
2013-02-08 06:43:00,22.6,17.1,30.41,NNE,22,1.0,3.0,79,0.00,,,0.00,WUHU216DAVISWMX,2013-02-08 11:43:00,
2013-02-08 06:48:00,22.6,17.1,30.41,NNE,22,0.0,3.0,79,0.00,,,0.00,WUHU216DAVISWMX,2013-02-08 11:48:00,
2013-02-08 06:53:00,22.5,17.3,30.41,NNE,22,0.0,2.0,80,0.00,,,0.00,WUHU216DAVISWMX,2013-02-08 11:53:00,
2013-02-08 06:58:00,22.5,17.3,30.42,NNE,22,0.0,2.0,80,0.00,,,0.00,WUHU216DAVISWMX,2013-02-08 11:58:00,
2013-02-08 07:03:00,22.5,17.3,30.41,NNE,22,1.0,2.0,80,0.00,,,0.00,WUHU216DAVISWMX,2013-02-08 12:03:00,
2013-02-08 07:08:00,22.2,17.0,30.41,NNE,22,1.0,3.0,80,0.00,,,0.00,WUHU216DAVISWMX,2013-02-08 12:08:00,
2013-02-08 07:13:00,22.0,17.1,30.41,NNE,23,2.0,3.0,81,0.00,,,0.00,WUHU216DAVISWMX,2013-02-08 12:13:00,
2013-02-08 07:18:00,22.0,17.3,30.41,North,4,2.0,4.0,82,0.00,,,0.00,WUHU216DAVISWMX,2013-02-08 12:18:00,
2013-02-08 07:23:00,21.9,17.0,30.40,North,4,4.0,4.0,81,0.00,,,0.00,WUHU216DAVISWMX,2013-02-08 12:23:00,
2013-02-08 07:28:00,21.9,17.0,30.40,North,4,1.0,4.0,81,0.00,,,0.00,WUHU216DAVISWMX,2013-02-08 12:28:00,
2013-02-08 07:33:00,22.0,17.3,30.40,North,4,1.0,3.0,82,0.00,,,0.00,WUHU216DAVISWMX,2013-02-08 12:33:00,
2013-02-08 07:38:00,21.9,17.2,30.40,North,4,1.0,3.0,82,0.00,,,0.00,WUHU216DAVISWMX,2013-02-08 12:38:00,
2013-02-08 07:43:00,21.8,17.1,30.40,ENE,57,1.0,3.0,82,0.00,,,0.00,WUHU216DAVISWMX,2013-02-08 12:43:00,
2013-02-08 07:48:00,21.7,17.3,30.40,NNE,17,1.0,3.0,83,0.00,,,0.00,WUHU216DAVISWMX,2013-02-08 12:48:00,
2013-02-08 07:53:00,21.6,17.2,30.40,NNE,17,0.0,3.0,83,0.00,,,0.00,WUHU216DAVISWMX,2013-02-08 12:53:00,
2013-02-08 07:58:00,21.6,17.2,30.40,NNE,17,1.0,3.0,83,0.00,,,0.00,WUHU216DAVISWMX,2013-02-08 12:58:00,
2013-02-08 08:03:00,21.6,17.2,30.39,North,350,2.0,3.0,83,0.00,,,0.00,WUHU216DAVISWMX,2013-02-08 13:03:00,
2013-02-08 08:08:00,21.5,17.1,30.39,North,359,1.0,3.0,83,0.00,,,0.00,WUHU216DAVISWMX,2013-02-08 13:08:00,
2013-02-08 08:13:00,21.5,17.1,30.39,NNW,344,1.0,3.0,83,0.00,,,0.00,WUHU216DAVISWMX,2013-02-08 13:13:00,
2013-02-08 08:18:00,21.4,17.0,30.38,North,351,1.0,3.0,83,0.00,,,0.00,WUHU216DAVISWMX,2013-02-08 13:18:00,
2013-02-08 08:23:00,21.3,17.2,30.38,North,351,2.0,3.0,84,0.00,,,0.00,WUHU216DAVISWMX,2013-02-08 13:23:00,
2013-02-08 08:28:00,21.3,16.9,30.38,North,354,1.0,4.0,83,0.00,,,0.00,WUHU216DAVISWMX,2013-02-08 13:28:00,
2013-02-08 08:33:00,21.1,17.0,30.38,North,5,2.0,4.0,84,0.00,,,0.00,WUHU216DAVISWMX,2013-02-08 13:33:00,
2013-02-08 08:38:00,21.1,17.0,30.37,North,1,3.0,3.0,84,0.00,,,0.00,WUHU216DAVISWMX,2013-02-08 13:38:00,
2013-02-08 08:43:00,21.0,16.9,30.37,North,11,3.0,3.0,84,0.00,,,0.00,WUHU216DAVISWMX,2013-02-08 13:43:00,
2013-02-08 08:48:00,20.9,16.8,30.36,North,11,1.0,4.0,84,0.00,,,0.00,WUHU216DAVISWMX,2013-02-08 13:48:00,
2013-02-08 08:53:00,21.0,16.9,30.36,NE,35,2.0,4.0,84,0.00,,,0.00,WUHU216DAVISWMX,2013-02-08 13:53:00,
2013-02-08 08:58:00,20.9,16.8,30.36,North,0,1.0,4.0,84,0.00,,,0.00,WUHU216DAVISWMX,2013-02-08 13:58:00,
2013-02-08 09:03:00,20.9,16.8,30.35,ENE,59,2.0,5.0,84,0.00,,,0.00,WUHU216DAVISWMX,2013-02-08 14:03:00,
2013-02-08 09:08:00,20.8,16.7,30.35,NNE,19,1.0,5.0,84,0.00,,,0.00,WUHU216DAVISWMX,2013-02-08 14:08:00,
2013-02-08 09:13:00,20.8,17.0,30.35,NNE,15,3.0,5.0,85,0.00,,,0.00,WUHU216DAVISWMX,2013-02-08 14:13:00,
2013-02-08 09:18:00,20.8,16.7,30.34,ENE,67,3.0,5.0,84,0.00,,,0.00,WUHU216DAVISWMX,2013-02-08 14:18:00,
2013-02-08 09:23:00,20.7,16.9,30.34,NNE,14,1.0,4.0,85,0.00,,,0.00,WUHU216DAVISWMX,2013-02-08 14:23:00,
2013-02-08 09:28:00,20.6,16.8,30.34,NNE,14,2.0,4.0,85,0.00,,,0.00,WUHU216DAVISWMX,2013-02-08 14:28:00,
2013-02-08 09:33:00,20.8,17.0,30.34,NNE,14,2.0,4.0,85,0.00,,,0.00,WUHU216DAVISWMX,2013-02-08 14:33:00,
2013-02-08 09:38:00,20.8,17.0,30.34,NNE,16,1.0,3.0,85,0.00,,,0.00,WUHU216DAVISWMX,2013-02-08 14:38:00,
2013-02-08 09:43:00,20.8,17.0,30.34,North,8,2.0,4.0,85,0.00,,,0.00,WUHU216DAVISWMX,2013-02-08 14:43:00,
2013-02-08 09:48:00,20.8,17.0,30.34,North,9,4.0,4.0,85,0.00,,,0.00,WUHU216DAVISWMX,2013-02-08 14:48:00,
2013-02-08 09:53:00,20.9,17.1,30.34,North,10,1.0,4.0,85,0.00,,,0.00,WUHU216DAVISWMX,2013-02-08 14:53:00,
2013-02-08 09:58:00,21.0,17.2,30.34,North,10,2.0,3.0,85,0.00,,,0.00,WUHU216DAVISWMX,2013-02-08 14:58:00,
2013-02-08 10:03:00,21.0,17.2,30.33,NNE,29,3.0,4.0,85,0.00,,,0.00,WUHU216DAVISWMX,2013-02-08 15:03:00,
2013-02-08 10:08:00,21.1,17.3,30.34,NNE,12,3.0,4.0,85,0.00,,,0.00,WUHU216DAVISWMX,2013-02-08 15:08:00,
2013-02-08 10:13:00,21.0,17.2,30.33,NNE,21,2.0,4.0,85,0.00,,,0.00,WUHU216DAVISWMX,2013-02-08 15:13:00,
2013-02-08 10:18:00,21.3,17.5,30.33,NNE,27,1.0,4.0,85,0.00,,,0.00,WUHU216DAVISWMX,2013-02-08 15:18:00,
2013-02-08 10:23:00,21.4,17.8,30.33,NNE,13,3.0,4.0,86,0.00,,,0.00,WUHU216DAVISWMX,2013-02-08 15:23:00,
2013-02-08 10:28:00,21.3,17.5,30.33,NNE,30,2.0,6.0,85,0.00,,,0.00,WUHU216DAVISWMX,2013-02-08 15:28:00,
2013-02-08 10:33:00,21.5,17.7,30.33,NNE,28,3.0,6.0,85,0.00,,,0.00,WUHU216DAVISWMX,2013-02-08 15:33:00,
2013-02-08 10:38:00,21.5,17.9,30.32,NNE,24,4.0,5.0,86,0.00,,,0.00,WUHU216DAVISWMX,2013-02-08 15:38:00,
2013-02-08 10:43:00,21.7,17.9,30.32,ENE,73,3.0,5.0,85,0.00,,,0.00,WUHU216DAVISWMX,2013-02-08 15:43:00,
2013-02-08 10:48:00,21.9,18.3,30.31,North,4,5.0,5.0,86,0.00,,,0.00,WUHU216DAVISWMX,2013-02-08 15:48:00,
2013-02-08 10:53:00,21.9,18.3,30.31,East,81,3.0,5.0,86,0.00,,,0.00,WUHU216DAVISWMX,2013-02-08 15:53:00,
2013-02-08 10:58:00,22.0,18.2,30.30,NNE,26,3.0,6.0,85,0.00,,,0.00,WUHU216DAVISWMX,2013-02-08 15:58:00,
2013-02-08 11:03:00,21.9,18.1,30.30,NNE,18,3.0,6.0,85,0.00,,,0.00,WUHU216DAVISWMX,2013-02-08 16:03:00,
2013-02-08 11:08:00,21.7,17.9,30.30,NE,38,2.0,6.0,85,0.00,,,0.00,WUHU216DAVISWMX,2013-02-08 16:08:00,
2013-02-08 11:13:00,21.8,18.0,30.30,ENE,74,3.0,6.0,85,0.00,,,0.00,WUHU216DAVISWMX,2013-02-08 16:13:00,
2013-02-08 11:18:00,22.0,18.2,30.29,ENE,69,2.0,5.0,85,0.00,,,0.00,WUHU216DAVISWMX,2013-02-08 16:18:00,
2013-02-08 11:23:00,22.0,17.9,30.29,NNE,29,1.0,5.0,84,0.00,,,0.00,WUHU216DAVISWMX,2013-02-08 16:23:00,
2013-02-08 11:28:00,21.8,17.4,30.28,North,11,5.0,5.0,83,0.00,,,0.00,WUHU216DAVISWMX,2013-02-08 16:28:00,
2013-02-08 11:33:00,21.7,17.6,30.28,NE,34,4.0,5.0,84,0.00,,,0.00,WUHU216DAVISWMX,2013-02-08 16:33:00,
2013-02-08 11:38:00,21.8,18.0,30.28,NNE,22,2.0,4.0,85,0.00,,,0.00,WUHU216DAVISWMX,2013-02-08 16:38:00,
2013-02-08 11:43:00,21.9,18.1,30.27,NE,39,2.0,4.0,85,0.00,,,0.00,WUHU216DAVISWMX,2013-02-08 16:43:00,
2013-02-08 11:48:00,22.0,17.9,30.27,North,8,6.0,6.0,84,0.00,,,0.00,WUHU216DAVISWMX,2013-02-08 16:48:00,
2013-02-08 11:53:00,22.0,17.9,30.26,NNE,12,5.0,6.0,84,0.00,,,0.00,WUHU216DAVISWMX,2013-02-08 16:53:00,
2013-02-08 11:58:00,22.1,18.3,30.26,NE,39,1.0,5.0,85,0.00,,,0.00,WUHU216DAVISWMX,2013-02-08 16:58:00,
2013-02-08 12:03:00,22.1,18.0,30.26,North,3,7.0,7.0,84,0.00,,,0.00,WUHU216DAVISWMX,2013-02-08 17:03:00,
2013-02-08 12:08:00,22.0,17.9,30.25,NE,34,0.0,7.0,84,0.00,,,0.00,WUHU216DAVISWMX,2013-02-08 17:08:00,
2013-02-08 12:13:00,22.0,17.9,30.25,NNE,27,5.0,5.0,84,0.00,,,0.00,WUHU216DAVISWMX,2013-02-08 17:13:00,
2013-02-08 12:18:00,22.1,18.0,30.24,NNE,25,3.0,7.0,84,0.00,,,0.00,WUHU216DAVISWMX,2013-02-08 17:18:00,
2013-02-08 12:23:00,22.3,17.9,30.23,East,86,2.0,8.0,83,0.00,,,0.00,WUHU216DAVISWMX,2013-02-08 17:23:00,
2013-02-08 12:28:00,22.3,18.2,30.22,NNE,14,3.0,8.0,84,0.00,,,0.00,WUHU216DAVISWMX,2013-02-08 17:28:00,
2013-02-08 12:33:00,22.1,18.0,30.23,North,6,8.0,8.0,84,0.00,,,0.00,WUHU216DAVISWMX,2013-02-08 17:33:00,
2013-02-08 12:38:00,22.0,17.9,30.22,NNE,29,1.0,8.0,84,0.00,,,0.00,WUHU216DAVISWMX,2013-02-08 17:38:00,
2013-02-08 12:43:00,22.2,18.1,30.22,ESE,104,2.0,6.0,84,0.00,,,0.00,WUHU216DAVISWMX,2013-02-08 17:43:00,
2013-02-08 12:48:00,22.3,18.2,30.21,ENE,74,3.0,6.0,84,0.00,,,0.00,WUHU216DAVISWMX,2013-02-08 17:48:00,
2013-02-08 12:53:00,22.4,18.3,30.21,NNE,16,2.0,6.0,84,0.00,,,0.00,WUHU216DAVISWMX,2013-02-08 17:53:00,
2013-02-08 12:58:00,22.6,18.5,30.21,North,1,3.0,5.0,84,0.00,,,0.00,WUHU216DAVISWMX,2013-02-08 17:58:00,
2013-02-08 13:03:00,22.6,18.2,30.20,NE,56,3.0,7.0,83,0.00,,,0.00,WUHU216DAVISWMX,2013-02-08 18:03:00,
2013-02-08 13:08:00,22.4,18.0,30.20,North,6,5.0,7.0,83,0.00,,,0.00,WUHU216DAVISWMX,2013-02-08 18:08:00,
2013-02-08 13:13:00,22.1,17.7,30.20,East,81,3.0,8.0,83,0.00,,,0.00,WUHU216DAVISWMX,2013-02-08 18:13:00,
2013-02-08 13:18:00,22.1,17.7,30.20,NNE,21,3.0,8.0,83,0.00,,,0.00,WUHU216DAVISWMX,2013-02-08 18:18:00,
2013-02-08 13:23:00,22.0,18.2,30.20,East,94,1.0,6.0,85,0.00,,,0.00,WUHU216DAVISWMX,2013-02-08 18:23:00,
2013-02-08 13:28:00,21.9,18.1,30.19,ENE,59,4.0,7.0,85,0.00,,,0.00,WUHU216DAVISWMX,2013-02-08 18:28:00,
2013-02-08 13:33:00,21.9,18.1,30.18,ENE,72,3.0,7.0,85,0.00,,,0.00,WUHU216DAVISWMX,2013-02-08 18:33:00,
2013-02-08 13:39:00,22.1,18.3,30.18,NE,42,3.0,7.0,85,0.00,,,0.00,WUHU216DAVISWMX,2013-02-08 18:39:00,
2013-02-08 13:44:00,21.8,18.0,30.18,North,1,5.0,5.0,85,0.00,,,0.00,WUHU216DAVISWMX,2013-02-08 18:44:00,
2013-02-08 13:49:00,21.5,17.9,30.18,North,11,3.0,5.0,86,0.00,,,0.00,WUHU216DAVISWMX,2013-02-08 18:49:00,
2013-02-08 13:54:00,21.4,17.8,30.18,NNE,23,4.0,6.0,86,0.00,,,0.00,WUHU216DAVISWMX,2013-02-08 18:54:00,
2013-02-08 13:59:00,21.1,17.5,30.17,ENE,69,3.0,6.0,86,0.00,,,0.00,WUHU216DAVISWMX,2013-02-08 18:59:00,
2013-02-08 14:04:00,21.1,17.5,30.16,ENE,76,3.0,6.0,86,0.00,,,0.00,WUHU216DAVISWMX,2013-02-08 19:04:00,
2013-02-08 14:09:00,21.0,17.7,30.17,East,83,2.0,6.0,87,0.00,,,0.00,WUHU216DAVISWMX,2013-02-08 19:09:00,
2013-02-08 14:14:00,21.0,17.7,30.16,NNE,21,3.0,5.0,87,0.00,,,0.00,WUHU216DAVISWMX,2013-02-08 19:14:00,
2013-02-08 14:19:00,20.9,17.6,30.16,NE,44,1.0,5.0,87,0.00,,,0.00,WUHU216DAVISWMX,2013-02-08 19:19:00,
2013-02-08 14:24:00,20.9,17.9,30.15,South,175,5.0,5.0,88,0.00,,,0.00,WUHU216DAVISWMX,2013-02-08 19:24:00,
2013-02-08 14:29:00,20.9,17.9,30.15,NNE,23,2.0,5.0,88,0.00,,,0.00,WUHU216DAVISWMX,2013-02-08 19:29:00,
2013-02-08 14:34:00,20.9,17.9,30.14,NE,36,4.0,4.0,88,0.00,,,0.00,WUHU216DAVISWMX,2013-02-08 19:34:00,
2013-02-08 14:39:00,20.9,17.9,30.14,NNE,29,4.0,6.0,88,0.00,,,0.00,WUHU216DAVISWMX,2013-02-08 19:39:00,
2013-02-08 14:44:00,21.0,18.0,30.14,NNE,19,2.0,6.0,88,0.00,,,0.00,WUHU216DAVISWMX,2013-02-08 19:44:00,
2013-02-08 14:49:00,20.8,17.8,30.13,NNE,12,3.0,8.0,88,0.00,,,0.00,WUHU216DAVISWMX,2013-02-08 19:49:00,
2013-02-08 14:54:00,20.8,17.8,30.13,North,10,5.0,8.0,88,0.00,,,0.00,WUHU216DAVISWMX,2013-02-08 19:54:00,
2013-02-08 14:59:00,20.6,17.8,30.14,East,93,0.0,5.0,89,0.00,,,0.00,WUHU216DAVISWMX,2013-02-08 19:59:00,
2013-02-08 15:04:00,20.8,17.8,30.13,NE,38,2.0,5.0,88,0.00,,,0.00,WUHU216DAVISWMX,2013-02-08 20:04:00,
2013-02-08 15:09:00,20.6,17.8,30.12,North,9,2.0,5.0,89,0.00,,,0.00,WUHU216DAVISWMX,2013-02-08 20:09:00,
2013-02-08 15:14:00,20.6,17.8,30.12,NNE,19,2.0,5.0,89,0.00,,,0.00,WUHU216DAVISWMX,2013-02-08 20:14:00,
2013-02-08 15:19:00,20.6,17.8,30.12,ENE,57,3.0,4.0,89,0.00,,,0.00,WUHU216DAVISWMX,2013-02-08 20:19:00,
2013-02-08 15:24:00,20.7,17.9,30.11,NNE,12,2.0,7.0,89,0.00,,,0.00,WUHU216DAVISWMX,2013-02-08 20:24:00,
2013-02-08 15:29:00,20.5,17.7,30.11,North,9,4.0,7.0,89,0.00,,,0.00,WUHU216DAVISWMX,2013-02-08 20:29:00,
2013-02-08 15:34:00,20.5,17.7,30.10,NNE,19,2.0,6.0,89,0.00,,,0.00,WUHU216DAVISWMX,2013-02-08 20:34:00,
2013-02-08 15:39:00,20.3,17.8,30.10,ENE,58,2.0,6.0,90,0.00,,,0.00,WUHU216DAVISWMX,2013-02-08 20:39:00,
2013-02-08 15:44:00,20.1,17.6,30.09,North,5,4.0,8.0,90,0.00,,,0.00,WUHU216DAVISWMX,2013-02-08 20:44:00,
2013-02-08 15:49:00,20.0,17.5,30.09,NNE,27,2.0,8.0,90,0.00,,,0.00,WUHU216DAVISWMX,2013-02-08 20:49:00,
2013-02-08 15:54:00,20.0,17.5,30.09,NNE,15,0.0,6.0,90,0.00,,,0.00,WUHU216DAVISWMX,2013-02-08 20:54:00,
2013-02-08 15:59:00,20.1,17.6,30.08,North,6,5.0,5.0,90,0.00,,,0.00,WUHU216DAVISWMX,2013-02-08 20:59:00,
2013-02-08 16:04:00,20.2,17.7,30.08,ENE,57,2.0,6.0,90,0.00,,,0.00,WUHU216DAVISWMX,2013-02-08 21:04:00,
2013-02-08 16:09:00,20.2,17.7,30.07,ENE,76,3.0,7.0,90,0.00,,,0.00,WUHU216DAVISWMX,2013-02-08 21:09:00,
2013-02-08 16:14:00,20.1,17.6,30.06,East,92,5.0,7.0,90,0.00,,,0.00,WUHU216DAVISWMX,2013-02-08 21:14:00,
2013-02-08 16:19:00,20.1,17.6,30.06,NNE,13,3.0,6.0,90,0.00,,,0.00,WUHU216DAVISWMX,2013-02-08 21:19:00,
2013-02-08 16:24:00,20.0,17.5,30.06,North,1,4.0,6.0,90,0.00,,,0.00,WUHU216DAVISWMX,2013-02-08 21:24:00,
2013-02-08 16:29:00,20.1,17.8,30.05,North,0,3.0,7.0,91,0.00,,,0.00,WUHU216DAVISWMX,2013-02-08 21:29:00,
2013-02-08 16:34:00,20.0,17.7,30.05,East,98,3.0,8.0,91,0.00,,,0.00,WUHU216DAVISWMX,2013-02-08 21:34:00,
2013-02-08 16:39:00,20.0,17.7,30.05,ESE,109,1.0,8.0,91,0.00,,,0.00,WUHU216DAVISWMX,2013-02-08 21:39:00,
2013-02-08 16:44:00,19.9,17.6,30.04,North,3,6.0,6.0,91,0.00,,,0.00,WUHU216DAVISWMX,2013-02-08 21:44:00,
2013-02-08 16:49:00,20.0,17.7,30.04,North,0,1.0,6.0,91,0.00,,,0.00,WUHU216DAVISWMX,2013-02-08 21:49:00,
2013-02-08 16:54:00,20.0,17.7,30.03,NNE,21,3.0,6.0,91,0.00,,,0.00,WUHU216DAVISWMX,2013-02-08 21:54:00,
2013-02-08 16:59:00,19.9,17.6,30.03,NE,55,5.0,8.0,91,0.00,,,0.00,WUHU216DAVISWMX,2013-02-08 21:59:00,
2013-02-08 17:04:00,19.7,17.4,30.02,NNE,33,2.0,8.0,91,0.00,,,0.00,WUHU216DAVISWMX,2013-02-08 22:04:00,
2013-02-08 17:09:00,19.7,17.4,30.02,North,11,5.0,5.0,91,0.00,,,0.00,WUHU216DAVISWMX,2013-02-08 22:09:00,
2013-02-08 17:14:00,19.7,17.4,30.02,North,1,4.0,6.0,91,0.00,,,0.00,WUHU216DAVISWMX,2013-02-08 22:14:00,
2013-02-08 17:19:00,19.7,17.4,30.01,NNE,21,2.0,6.0,91,0.00,,,0.00,WUHU216DAVISWMX,2013-02-08 22:19:00,
2013-02-08 17:24:00,19.8,17.5,30.01,NE,40,1.0,6.0,91,0.00,,,0.00,WUHU216DAVISWMX,2013-02-08 22:24:00,
2013-02-08 17:29:00,19.6,17.4,30.01,North,7,3.0,7.0,91,0.00,,,0.00,WUHU216DAVISWMX,2013-02-08 22:29:00,
2013-02-08 17:34:00,19.7,17.4,30.01,NNE,12,4.0,7.0,91,0.00,,,0.00,WUHU216DAVISWMX,2013-02-08 22:34:00,
2013-02-08 17:39:00,19.8,17.5,30.01,NE,46,4.0,8.0,91,0.00,,,0.00,WUHU216DAVISWMX,2013-02-08 22:39:00,
2013-02-08 17:44:00,19.6,17.4,30.01,NNE,13,1.0,8.0,91,0.00,,,0.00,WUHU216DAVISWMX,2013-02-08 22:44:00,
2013-02-08 17:49:00,19.7,17.7,30.01,ENE,70,2.0,9.0,92,0.00,,,0.00,WUHU216DAVISWMX,2013-02-08 22:49:00,
2013-02-08 17:54:00,19.6,17.4,30.01,North,11,4.0,9.0,91,0.00,,,0.00,WUHU216DAVISWMX,2013-02-08 22:54:00,
2013-02-08 17:59:00,19.5,17.3,30.00,North,10,2.0,6.0,91,0.00,,,0.00,WUHU216DAVISWMX,2013-02-08 22:59:00,
2013-02-08 18:04:00,19.5,17.3,30.00,North,11,0.0,6.0,91,0.00,,,0.00,WUHU216DAVISWMX,2013-02-08 23:04:00,
2013-02-08 18:09:00,19.6,17.4,29.99,NNE,12,7.0,9.0,91,0.00,,,0.00,WUHU216DAVISWMX,2013-02-08 23:09:00,
2013-02-08 18:14:00,19.6,17.4,29.99,NNE,23,3.0,9.0,91,0.00,,,0.00,WUHU216DAVISWMX,2013-02-08 23:14:00,
2013-02-08 18:19:00,19.4,17.2,29.98,NNE,17,6.0,9.0,91,0.00,,,0.00,WUHU216DAVISWMX,2013-02-08 23:19:00,
2013-02-08 18:24:00,19.4,17.4,29.98,NNE,29,4.0,9.0,92,0.00,,,0.00,WUHU216DAVISWMX,2013-02-08 23:24:00,
2013-02-08 18:30:00,19.4,17.4,29.98,North,353,1.0,6.0,92,0.00,,,0.00,WUHU216DAVISWMX,2013-02-08 23:30:00,
2013-02-08 18:35:00,19.5,17.5,29.98,NNE,18,4.0,9.0,92,0.00,,,0.00,WUHU216DAVISWMX,2013-02-08 23:35:00,
2013-02-08 18:40:00,19.5,17.5,29.98,ENE,64,2.0,9.0,92,0.00,,,0.00,WUHU216DAVISWMX,2013-02-08 23:40:00,
2013-02-08 18:45:00,19.3,17.3,29.98,North,10,2.0,7.0,92,0.00,,,0.00,WUHU216DAVISWMX,2013-02-08 23:45:00,
2013-02-08 18:50:00,19.3,17.3,29.98,North,359,5.0,8.0,92,0.00,,,0.00,WUHU216DAVISWMX,2013-02-08 23:50:00,
2013-02-08 18:55:00,19.5,17.5,29.97,NE,50,3.0,8.0,92,0.00,,,0.00,WUHU216DAVISWMX,2013-02-08 23:55:00,
2013-02-08 19:00:00,19.4,17.4,29.96,NNE,18,3.0,6.0,92,0.00,,,0.00,WUHU216DAVISWMX,2013-02-09 00:00:00,
2013-02-08 19:05:00,19.5,17.5,29.96,NE,49,6.0,8.0,92,0.00,,,0.00,WUHU216DAVISWMX,2013-02-09 00:05:00,
2013-02-08 19:10:00,19.5,17.8,29.95,NNE,13,6.0,10.0,93,0.00,,,0.00,WUHU216DAVISWMX,2013-02-09 00:10:00,
2013-02-08 19:15:00,19.5,17.8,29.94,ENE,66,3.0,10.0,93,0.00,,,0.00,WUHU216DAVISWMX,2013-02-09 00:15:00,
2013-02-08 19:20:00,19.6,17.9,29.93,North,6,9.0,9.0,93,0.00,,,0.00,WUHU216DAVISWMX,2013-02-09 00:20:00,
2013-02-08 19:25:00,19.6,17.9,29.93,NNE,33,3.0,9.0,93,0.00,,,0.00,WUHU216DAVISWMX,2013-02-09 00:25:00,
2013-02-08 19:30:00,19.6,17.9,29.93,North,3,3.0,8.0,93,0.00,,,0.00,WUHU216DAVISWMX,2013-02-09 00:30:00,
2013-02-08 19:35:00,19.6,17.9,29.92,North,0,5.0,9.0,93,0.00,,,0.00,WUHU216DAVISWMX,2013-02-09 00:35:00,
2013-02-08 19:40:00,19.6,17.9,29.92,North,2,5.0,9.0,93,0.00,,,0.00,WUHU216DAVISWMX,2013-02-09 00:40:00,
2013-02-08 19:45:00,19.8,18.3,29.92,North,0,3.0,9.0,94,0.00,,,0.00,WUHU216DAVISWMX,2013-02-09 00:45:00,
2013-02-08 19:50:00,19.7,18.0,29.92,North,11,3.0,7.0,93,0.00,,,0.00,WUHU216DAVISWMX,2013-02-09 00:50:00,
2013-02-08 19:55:00,19.7,18.2,29.91,North,10,7.0,7.0,94,0.00,,,0.00,WUHU216DAVISWMX,2013-02-09 00:55:00,
2013-02-08 20:00:00,19.7,18.0,29.90,ENE,58,2.0,10.0,93,0.00,,,0.00,WUHU216DAVISWMX,2013-02-09 01:00:00,
2013-02-08 20:05:00,19.9,18.2,29.90,North,3,5.0,11.0,93,0.00,,,0.00,WUHU216DAVISWMX,2013-02-09 01:05:00,
2013-02-08 20:10:00,19.9,18.2,29.90,NNE,15,7.0,11.0,93,0.00,,,0.00,WUHU216DAVISWMX,2013-02-09 01:10:00,
2013-02-08 20:15:00,19.9,18.2,29.90,NNE,12,5.0,11.0,93,0.00,,,0.00,WUHU216DAVISWMX,2013-02-09 01:15:00,
2013-02-08 20:20:00,19.8,18.1,29.89,NE,40,10.0,11.0,93,0.00,,,0.00,WUHU216DAVISWMX,2013-02-09 01:20:00,
2013-02-08 20:25:00,19.8,18.1,29.89,NE,40,2.0,10.0,93,0.00,,,0.00,WUHU216DAVISWMX,2013-02-09 01:25:00,
2013-02-08 20:30:00,19.7,18.0,29.88,NE,48,4.0,8.0,93,0.00,,,0.00,WUHU216DAVISWMX,2013-02-09 01:30:00,
2013-02-08 20:35:00,19.7,18.0,29.88,NNE,20,4.0,8.0,93,0.00,,,0.00,WUHU216DAVISWMX,2013-02-09 01:35:00,
2013-02-08 20:40:00,19.6,17.9,29.87,NNE,19,7.0,8.0,93,0.00,,,0.00,WUHU216DAVISWMX,2013-02-09 01:40:00,
2013-02-08 20:45:00,19.5,18.0,29.87,North,9,2.0,7.0,94,0.00,,,0.00,WUHU216DAVISWMX,2013-02-09 01:45:00,
2013-02-08 20:50:00,19.5,18.0,29.87,NNE,26,4.0,7.0,94,0.00,,,0.00,WUHU216DAVISWMX,2013-02-09 01:50:00,
2013-02-08 20:55:00,19.2,17.5,29.86,North,5,4.0,11.0,93,0.00,,,0.00,WUHU216DAVISWMX,2013-02-09 01:55:00,
2013-02-08 21:00:00,19.2,17.5,29.86,North,4,8.0,11.0,93,0.00,,,0.00,WUHU216DAVISWMX,2013-02-09 02:00:00,
2013-02-08 21:05:00,19.2,17.5,29.86,ENE,61,5.0,10.0,93,0.00,,,0.00,WUHU216DAVISWMX,2013-02-09 02:05:00,
2013-02-08 21:10:00,19.0,17.5,29.86,NNE,33,8.0,11.0,94,0.00,,,0.00,WUHU216DAVISWMX,2013-02-09 02:10:00,
2013-02-08 21:15:00,19.0,17.5,29.86,NNE,15,6.0,11.0,94,0.00,,,0.00,WUHU216DAVISWMX,2013-02-09 02:15:00,
2013-02-08 21:20:00,18.9,17.4,29.85,North,354,5.0,8.0,94,0.00,,,0.00,WUHU216DAVISWMX,2013-02-09 02:20:00,
2013-02-08 21:25:00,18.7,17.2,29.85,NNE,20,8.0,10.0,94,0.00,,,0.00,WUHU216DAVISWMX,2013-02-09 02:25:00,
2013-02-08 21:30:00,18.6,17.1,29.85,NNE,23,6.0,10.0,94,0.00,,,0.00,WUHU216DAVISWMX,2013-02-09 02:30:00,
2013-02-08 21:35:00,18.3,16.8,29.85,North,9,3.0,10.0,94,0.00,,,0.00,WUHU216DAVISWMX,2013-02-09 02:35:00,
2013-02-08 21:40:00,18.4,16.9,29.84,NNE,29,5.0,10.0,94,0.00,,,0.00,WUHU216DAVISWMX,2013-02-09 02:40:00,
2013-02-08 21:45:00,18.0,16.5,29.84,NE,35,7.0,12.0,94,0.00,,,0.00,WUHU216DAVISWMX,2013-02-09 02:45:00,
2013-02-08 21:50:00,17.9,16.7,29.83,NNE,12,1.0,12.0,95,0.00,,,0.00,WUHU216DAVISWMX,2013-02-09 02:50:00,
2013-02-08 21:55:00,17.8,16.6,29.83,NNW,342,4.0,12.0,95,0.00,,,0.00,WUHU216DAVISWMX,2013-02-09 02:55:00,
2013-02-08 22:00:00,17.8,16.3,29.83,NNE,22,3.0,8.0,94,0.00,,,0.00,WUHU216DAVISWMX,2013-02-09 03:00:00,
2013-02-08 22:05:00,17.7,16.2,29.83,North,8,3.0,11.0,94,0.00,,,0.00,WUHU216DAVISWMX,2013-02-09 03:05:00,
2013-02-08 22:10:00,17.5,16.3,29.82,NE,50,5.0,11.0,95,0.00,,,0.00,WUHU216DAVISWMX,2013-02-09 03:10:00,
2013-02-08 22:15:00,17.4,15.9,29.81,NNE,27,4.0,9.0,94,0.00,,,0.00,WUHU216DAVISWMX,2013-02-09 03:15:00,
2013-02-08 22:20:00,17.4,15.9,29.80,North,1,4.0,9.0,94,0.00,,,0.00,WUHU216DAVISWMX,2013-02-09 03:20:00,
2013-02-08 22:25:00,17.3,16.1,29.80,NNW,332,2.0,8.0,95,0.00,,,0.00,WUHU216DAVISWMX,2013-02-09 03:25:00,
2013-02-08 22:30:00,17.1,15.9,29.79,NNE,32,4.0,9.0,95,0.00,,,0.00,WUHU216DAVISWMX,2013-02-09 03:30:00,
2013-02-08 22:35:00,17.2,15.7,29.79,North,7,7.0,9.0,94,0.00,,,0.00,WUHU216DAVISWMX,2013-02-09 03:35:00,
2013-02-08 22:40:00,17.1,15.6,29.78,North,11,4.0,8.0,94,0.00,,,0.00,WUHU216DAVISWMX,2013-02-09 03:40:00,
2013-02-08 22:45:00,17.0,15.5,29.78,North,4,4.0,9.0,94,0.00,,,0.00,WUHU216DAVISWMX,2013-02-09 03:45:00,
2013-02-08 22:50:00,16.9,15.7,29.79,NE,43,6.0,9.0,95,0.00,,,0.00,WUHU216DAVISWMX,2013-02-09 03:50:00,
2013-02-08 22:55:00,17.1,15.9,29.78,NNE,23,2.0,8.0,95,0.00,,,0.00,WUHU216DAVISWMX,2013-02-09 03:55:00,
2013-02-08 23:00:00,17.0,15.8,29.77,NNE,24,2.0,9.0,95,0.00,,,0.00,WUHU216DAVISWMX,2013-02-09 04:00:00,
2013-02-08 23:05:00,16.9,15.7,29.77,North,2,5.0,9.0,95,0.00,,,0.00,WUHU216DAVISWMX,2013-02-09 04:05:00,
2013-02-08 23:10:00,17.0,15.8,29.77,NNE,33,5.0,10.0,95,0.00,,,0.00,WUHU216DAVISWMX,2013-02-09 04:10:00,
2013-02-08 23:15:00,16.9,15.4,29.77,NNE,17,4.0,10.0,94,0.00,,,0.00,WUHU216DAVISWMX,2013-02-09 04:15:00,
2013-02-08 23:20:00,16.9,15.4,29.76,NNE,18,10.0,10.0,94,0.00,,,0.00,WUHU216DAVISWMX,2013-02-09 04:20:00,
2013-02-08 23:25:00,16.8,15.3,29.76,NNE,19,5.0,10.0,94,0.00,,,0.00,WUHU216DAVISWMX,2013-02-09 04:25:00,
2013-02-08 23:30:00,17.0,15.5,29.76,NE,50,4.0,10.0,94,0.00,,,0.00,WUHU216DAVISWMX,2013-02-09 04:30:00,
2013-02-08 23:35:00,16.9,15.4,29.76,NNE,15,4.0,10.0,94,0.00,,,0.00,WUHU216DAVISWMX,2013-02-09 04:35:00,
2013-02-08 23:40:00,16.8,15.3,29.76,NE,55,4.0,14.0,94,0.00,,,0.00,WUHU216DAVISWMX,2013-02-09 04:40:00,
2013-02-08 23:45:00,16.8,15.3,29.77,NNE,33,4.0,14.0,94,0.00,,,0.00,WUHU216DAVISWMX,2013-02-09 04:45:00,
2013-02-08 23:50:00,16.6,15.1,29.76,North,359,4.0,10.0,94,0.00,,,0.00,WUHU216DAVISWMX,2013-02-09 04:50:00,
2013-02-08 23:55:00,16.6,15.1,29.76,North,11,5.0,8.0,94,0.00,,,0.00,WUHU216DAVISWMX,2013-02-09 04:55:00,